Time;durP1;ratioP1;P1;durP2;ratioP2;P2;SDS_P1;SDS_P2;PMS_P1;PMS_P2;Temp;Humidity;BMP_temperature;BMP_pressure;BME280_temperature;BME280_humidity;BME280_pressure;Samples;Min_cycle;Max_cycle;Signal;HPM_P1;HPM_P2
2022/07/07 00:01:01;;;;;;;2.50;2.30;;;;;;;22.92;45.10;93696.97;6140958;23;20020;-92
2022/07/07 00:03:26;;;;;;;2.50;2.30;;;;;;;22.89;45.08;93699.53;6157848;23;20027;-91
2022/07/07 00:05:52;;;;;;;2.58;2.38;;;;;;;22.90;44.91;93698.25;6182967;23;20078;-92
2022/07/07 00:08:17;;;;;;;2.78;2.53;;;;;;;22.90;45.04;93694.75;6156926;23;20020;-93
2022/07/07 00:10:43;;;;;;;2.63;2.25;;;;;;;22.90;44.99;93695.50;6158014;23;20020;-92
2022/07/07 00:13:08;;;;;;;2.40;2.20;;;;;;;22.92;45.23;93692.22;6157323;23;20009;-92
2022/07/07 00:15:33;;;;;;;2.60;2.40;;;;;;;22.90;45.12;93689.97;6157625;23;20016;-92
2022/07/07 00:17:59;;;;;;;2.60;2.30;;;;;;;22.90;45.09;93700.25;6157469;23;20008;-93
2022/07/07 00:20:25;;;;;;;2.58;2.38;;;;;;;22.89;45.08;93699.53;6156762;23;20027;-91
2022/07/07 00:22:52;;;;;;;2.42;2.22;;;;;;;22.90;44.80;93697.50;6157892;23;20044;-91
2022/07/07 00:25:18;;;;;;;2.60;2.40;;;;;;;22.89;45.11;93690.50;6158037;23;20020;-92
2022/07/07 00:27:43;;;;;;;2.38;2.17;;;;;;;22.89;45.15;93696.75;6157634;23;20028;-91
2022/07/07 00:30:09;;;;;;;2.10;2.00;;;;;;;22.90;45.10;93694.75;6181839;23;20086;-92
2022/07/07 00:32:34;;;;;;;2.50;2.30;;;;;;;22.89;45.30;93691.25;6158604;23;20016;-91
2022/07/07 00:35:00;;;;;;;2.35;2.15;;;;;;;22.89;45.11;93693.28;6157827;23;20024;-91
2022/07/07 00:37:25;;;;;;;2.38;2.17;;;;;;;22.90;45.18;93692.00;6181870;23;20013;-91
2022/07/07 00:39:51;;;;;;;2.35;2.15;;;;;;;22.88;45.17;93687.00;6158376;23;20019;-92
2022/07/07 00:42:16;;;;;;;2.50;2.30;;;;;;;22.90;45.33;93698.25;6156822;23;20309;-91
2022/07/07 00:44:42;;;;;;;2.53;2.10;;;;;;;22.90;45.34;93689.97;6182897;23;20046;-91
2022/07/07 00:47:08;;;;;;;2.30;2.10;;;;;;;22.88;45.19;93683.50;6181668;23;20348;-91
2022/07/07 00:49:35;;;;;;;2.40;2.20;;;;;;;22.90;45.29;93686.47;6158637;23;20017;-92
2022/07/07 00:52:00;;;;;;;2.05;1.85;;;;;;;22.87;45.24;93682.78;6160290;23;20411;-92
2022/07/07 00:54:26;;;;;;;2.13;1.83;;;;;;;22.87;45.25;93688.28;6158952;23;20031;-91
2022/07/07 00:56:51;;;;;;;2.05;1.95;;;;;;;22.89;45.52;93685.00;6160111;23;20036;-91
2022/07/07 00:59:16;;;;;;;2.13;1.92;;;;;;;22.87;45.41;93679.28;6183078;23;20024;-92
2022/07/07 01:01:42;;;;;;;2.10;2.00;;;;;;;22.88;45.38;93686.28;6184476;23;20020;-91
2022/07/07 01:04:11;;;;;;;2.25;2.05;;;;;;;22.86;45.44;93677.78;6158580;23;20460;-91
2022/07/07 01:06:38;;;;;;;2.35;2.15;;;;;;;22.86;45.23;93678.53;6159626;23;20112;-92
2022/07/07 01:09:03;;;;;;;2.40;2.20;;;;;;;22.86;45.48;93678.53;6158700;23;20021;-92
2022/07/07 01:11:44;;;;;;;2.10;1.92;;;;;;;22.86;45.53;93681.28;6159982;23;20036;-92
2022/07/07 01:14:09;;;;;;;1.73;1.63;;;;;;;22.88;45.41;93683.50;6158985;23;20146;-91
2022/07/07 01:16:35;;;;;;;1.77;1.67;;;;;;;22.85;45.51;93674.28;6184165;23;20032;-92
2022/07/07 01:19:00;;;;;;;1.90;1.77;;;;;;;22.85;45.33;93685.31;6159099;23;20016;-91
2022/07/07 01:21:25;;;;;;;2.35;1.73;;;;;;;22.86;45.50;93686.06;6158347;23;20004;-91
2022/07/07 01:23:51;;;;;;;1.75;1.65;;;;;;;22.84;45.40;93685.84;6159956;23;20024;-91
2022/07/07 01:26:16;;;;;;;2.08;1.95;;;;;;;22.85;45.43;93679.06;6159267;23;20297;-92
2022/07/07 01:28:42;;;;;;;2.25;1.90;;;;;;;22.85;45.37;93679.81;6159097;23;20028;-92
2022/07/07 01:31:10;;;;;;;2.05;1.85;;;;;;;22.84;45.67;93674.81;6159267;23;20013;-93
2022/07/07 01:33:35;;;;;;;2.15;1.95;;;;;;;22.83;45.69;93665.81;6160056;23;20466;-93
2022/07/07 01:36:02;;;;;;;2.15;1.95;;;;;;;22.82;45.54;93674.63;6159117;23;20021;-93
2022/07/07 01:38:27;;;;;;;1.88;1.75;;;;;;;22.84;45.44;93672.81;6183770;23;20119;-92
2022/07/07 01:40:53;;;;;;;1.83;1.73;;;;;;;22.83;45.34;93673.34;6159592;23;20352;-91
2022/07/07 01:43:18;;;;;;;1.50;1.40;;;;;;;22.82;45.71;93669.09;6158954;23;20016;-91
2022/07/07 01:45:43;;;;;;;1.77;1.67;;;;;;;22.84;45.45;93661.03;6160189;23;20317;-91
2022/07/07 01:48:09;;;;;;;1.48;1.38;;;;;;;22.81;45.42;93671.13;6158265;23;20017;-91
2022/07/07 01:50:35;;;;;;;1.92;1.80;;;;;;;22.84;45.64;93670.06;6183984;23;20008;-91
2022/07/07 01:53:00;;;;;;;1.90;1.67;;;;;;;22.83;45.63;93668.56;6159333;23;20021;-92
2022/07/07 01:55:25;;;;;;;1.80;1.70;;;;;;;22.84;45.57;93666.56;6157636;23;20026;-90
2022/07/07 01:57:51;;;;;;;1.80;1.70;;;;;;;22.84;45.73;93670.06;6159179;23;20325;-91
2022/07/07 02:00:16;;;;;;;1.83;1.52;;;;;;;22.83;45.74;93673.34;6158105;23;20017;-92
2022/07/07 02:02:42;;;;;;;2.42;2.00;;;;;;;22.82;45.75;93672.59;6158901;23;20028;-92
2022/07/07 02:05:08;;;;;;;1.80;1.70;;;;;;;22.82;45.65;93672.59;6158103;23;20024;-92
2022/07/07 02:07:35;;;;;;;1.70;1.60;;;;;;;22.82;45.71;93667.09;6158024;23;20023;-92
2022/07/07 02:10:01;;;;;;;1.98;1.75;;;;;;;22.82;45.78;93669.84;6158239;23;20067;-92
2022/07/07 02:12:26;;;;;;;1.73;1.63;;;;;;;22.82;45.94;93663.59;6158334;23;20016;-93
2022/07/07 02:14:52;;;;;;;1.65;1.55;;;;;;;22.83;45.77;93665.06;6183922;23;20090;-93
2022/07/07 02:17:17;;;;;;;1.58;1.48;;;;;;;22.82;46.01;93663.59;6157154;23;20445;-91
2022/07/07 02:19:43;;;;;;;1.88;1.55;;;;;;;22.82;45.93;93655.31;6158628;23;20071;-92
2022/07/07 02:22:08;;;;;;;1.67;1.50;;;;;;;22.82;45.71;93660.84;6158196;23;20509;-91
2022/07/07 02:24:34;;;;;;;1.73;1.63;;;;;;;22.83;45.31;93667.84;6158714;23;20348;-91
2022/07/07 02:26:59;;;;;;;1.52;1.42;;;;;;;22.81;45.82;93668.38;6158844;23;20017;-93
2022/07/07 02:29:25;;;;;;;1.75;1.65;;;;;;;22.80;45.63;93664.13;6157324;23;20436;-91
2022/07/07 02:31:53;;;;;;;1.30;1.20;;;;;;;22.81;45.73;93662.09;6159325;23;20032;-91
2022/07/07 02:34:20;;;;;;;1.35;1.25;;;;;;;22.82;45.57;93658.81;6157521;23;20351;-90
2022/07/07 02:36:45;;;;;;;1.52;1.42;;;;;;;22.82;45.75;93663.59;6183260;23;20052;-92
2022/07/07 02:39:11;;;;;;;1.55;1.40;;;;;;;22.81;45.73;93673.13;6181641;23;20075;-90
2022/07/07 02:41:36;;;;;;;1.50;1.40;;;;;;;22.81;45.60;93668.38;6158212;23;20016;-91
2022/07/07 02:44:02;;;;;;;1.75;1.65;;;;;;;22.80;45.76;93669.63;6158113;23;20021;-91
2022/07/07 02:46:28;;;;;;;1.55;1.40;;;;;;;22.81;45.64;93673.13;6157802;23;20440;-92
2022/07/07 02:48:53;;;;;;;1.70;1.55;;;;;;;22.80;45.77;93672.38;6182893;23;20012;-91
2022/07/07 02:51:19;;;;;;;1.40;1.30;;;;;;;22.80;45.72;93672.38;6183360;23;20321;-91
2022/07/07 02:53:44;;;;;;;1.98;1.20;;;;;;;22.78;45.67;93669.41;6158766;23;20079;-91
2022/07/07 02:56:10;;;;;;;1.70;1.60;;;;;;;22.82;45.83;93669.09;6157125;23;20072;-91
2022/07/07 02:58:35;;;;;;;1.40;1.30;;;;;;;22.79;45.72;93670.91;6157491;23;20016;-91
2022/07/07 03:01:01;;;;;;;1.70;1.60;;;;;;;22.78;46.08;93676.94;6158652;23;20025;-92
2022/07/07 03:03:26;;;;;;;1.88;1.55;;;;;;;22.79;45.48;93670.91;6157419;23;20444;-91
2022/07/07 03:05:51;;;;;;;1.60;1.50;;;;;;;22.82;45.79;93666.34;6158337;23;20027;-91
2022/07/07 03:08:17;;;;;;;1.30;1.20;;;;;;;22.80;45.88;93669.63;6156320;23;20016;-93
2022/07/07 03:10:43;;;;;;;1.60;1.42;;;;;;;22.81;45.72;93667.63;6158270;23;20032;-93
2022/07/07 03:13:08;;;;;;;1.58;1.30;;;;;;;22.79;45.77;93656.38;6157097;23;20021;-91
2022/07/07 03:15:34;;;;;;;1.70;1.60;;;;;;;22.79;45.89;93667.41;6158156;23;20027;-92
2022/07/07 03:17:59;;;;;;;1.50;1.40;;;;;;;22.79;45.84;93661.91;6157382;23;20013;-91
2022/07/07 03:20:25;;;;;;;1.40;1.30;;;;;;;22.78;45.53;93655.66;6157545;23;20021;-92
2022/07/07 03:22:50;;;;;;;1.42;1.33;;;;;;;22.79;45.84;93664.66;6157975;23;20031;-91
2022/07/07 03:25:15;;;;;;;1.20;1.10;;;;;;;22.79;45.68;93661.91;6157577;23;20075;-91
2022/07/07 03:27:41;;;;;;;1.52;1.42;;;;;;;22.78;45.79;93661.16;6157989;23;20047;-92
2022/07/07 03:30:07;;;;;;;1.48;1.30;;;;;;;22.78;45.67;93660.41;6157082;23;20009;-91
2022/07/07 03:32:33;;;;;;;1.65;1.55;;;;;;;22.80;45.59;93660.63;6157278;23;20023;-90
2022/07/07 03:34:58;;;;;;;1.50;1.40;;;;;;;22.79;45.78;93656.38;6158727;23;20017;-90
2022/07/07 03:37:24;;;;;;;1.63;1.45;;;;;;;22.78;45.82;93658.41;6180912;23;20336;-91
2022/07/07 03:39:50;;;;;;;1.35;1.25;;;;;;;22.80;45.66;93664.13;6182162;23;20136;-91
2022/07/07 03:42:16;;;;;;;2.05;1.63;;;;;;;22.81;45.77;93670.38;6156872;23;20447;-91
2022/07/07 03:44:42;;;;;;;2.25;1.73;;;;;;;22.83;45.83;93665.06;6159668;23;20076;-90
2022/07/07 03:47:07;;;;;;;3.15;1.38;;;;;;;22.79;45.37;93662.63;6156793;23;20020;-90
2022/07/07 03:49:33;;;;;;;22.20;3.00;;;;;;;22.81;45.47;93668.38;6159035;23;20009;-92
2022/07/07 03:51:59;;;;;;;5.65;1.88;;;;;;;22.80;45.82;93672.38;6183708;23;20416;-91
2022/07/07 03:54:24;;;;;;;1.60;1.20;;;;;;;22.83;45.84;93668.56;6161659;23;20036;-90
2022/07/07 03:56:51;;;;;;;5.22;2.03;;;;;;;22.86;45.54;93666.75;6183456;23;20028;-89
2022/07/07 03:59:17;;;;;;;2.08;1.20;;;;;;;22.81;45.94;93673.13;6157120;23;20063;-90
2022/07/07 04:01:44;;;;;;;1.42;1.20;;;;;;;22.80;45.69;93668.91;6159521;23;20028;-90
2022/07/07 04:04:20;;;;;;;5.18;2.20;;;;;;;22.75;44.56;93675.22;6156333;23;20019;-92
2022/07/07 04:06:49;;;;;;;5.82;2.88;;;;;;;22.73;42.26;93672.28;6182454;23;20020;-92
2022/07/07 04:09:15;;;;;;;8.45;2.95;;;;;;;22.61;41.28;93671.75;6214276;23;20028;-92
2022/07/07 04:11:42;;;;;;;15.68;4.05;;;;;;;22.54;40.23;93673.16;6189703;23;20024;-91
2022/07/07 04:14:20;;;;;;;8.60;4.55;;;;;;;22.53;39.99;93670.91;6147429;22;20028;-92
2022/07/07 04:16:54;;;;;;;4.80;3.30;;;;;;;22.48;39.77;93671.78;6138325;23;20077;-92
2022/07/07 04:19:20;;;;;;;5.38;4.80;;;;;;;22.38;39.63;93670.72;6133670;23;20484;-92
2022/07/07 04:21:45;;;;;;;7.13;4.00;;;;;;;22.44;39.56;93666.59;6133425;23;20024;-90
2022/07/07 04:24:13;;;;;;;13.55;4.05;;;;;;;22.37;39.51;93667.22;6127169;23;20037;-93
2022/07/07 04:26:38;;;;;;;8.27;4.30;;;;;;;22.36;39.70;93674.00;6125373;23;20024;-93
2022/07/07 04:29:04;;;;;;;9.07;4.40;;;;;;;22.38;39.36;93671.47;6101471;23;20017;-88
2022/07/07 04:31:30;;;;;;;11.55;4.25;;;;;;;22.33;39.75;93679.84;6104643;23;20013;-92
2022/07/07 04:33:55;;;;;;;7.90;4.10;;;;;;;22.37;39.54;93672.00;6103770;23;20017;-91
2022/07/07 04:36:21;;;;;;;8.30;3.03;;;;;;;22.34;41.59;93679.31;6129918;23;20354;-91
2022/07/07 04:38:46;;;;;;;330.55;299.23;;;;;;;22.26;40.83;93683.25;6128937;23;20091;-92
2022/07/07 04:41:12;;;;;;;9.25;6.32;;;;;;;22.12;40.92;93677.72;6102221;23;20150;-92
2022/07/07 04:43:37;;;;;;;12.75;8.27;;;;;;;22.14;41.02;93677.94;6129329;23;20133;-93
2022/07/07 04:46:02;;;;;;;13.40;8.13;;;;;;;22.07;40.88;93688.84;6185940;22;20120;-90
2022/07/07 04:48:28;;;;;;;12.82;7.82;;;;;;;21.94;41.18;93686.78;6160886;23;20016;-95
2022/07/07 04:50:54;;;;;;;6.63;5.55;;;;;;;21.86;40.99;93683.19;6161112;23;20043;-92
2022/07/07 04:53:19;;;;;;;8.55;5.22;;;;;;;21.94;41.01;93683.28;6151307;23;20796;-92
2022/07/07 04:55:45;;;;;;;13.63;8.15;;;;;;;21.76;41.27;93682.09;6158816;23;20029;-92
2022/07/07 04:58:10;;;;;;;11.52;7.30;;;;;;;21.75;41.26;93686.84;6156860;23;20410;-92
2022/07/07 05:00:36;;;;;;;27.20;13.10;;;;;;;21.72;41.33;93687.16;6157710;23;20024;-91
2022/07/07 05:03:02;;;;;;;31.27;13.63;;;;;;;21.57;42.03;93692.44;6143706;23;20027;-93
2022/07/07 05:05:27;;;;;;;29.35;13.93;;;;;;;21.70;41.68;93686.94;6155486;23;20016;-89
2022/07/07 05:07:56;;;;;;;31.80;17.92;;;;;;;21.68;41.75;93695.72;6183501;23;20072;-95
2022/07/07 05:10:25;;;;;;;26.52;13.68;;;;;;;21.52;42.14;93689.22;6157414;23;20421;-91
2022/07/07 05:12:55;;;;;;;31.10;16.05;;;;;;;21.43;42.52;93695.16;6162398;23;20055;-90
2022/07/07 05:16:02;;;;;;;19.70;10.98;;;;;;;21.47;42.27;93697.56;6173294;23;20045;-94
2022/07/07 05:18:40;;;;;;;;;;;;;;;;;;;;;
2022/07/07 05:21:06;;;;;;;20.45;11.50;;;;;;;21.27;42.74;93696.13;6143182;23;20095;-91
2022/07/07 05:23:31;;;;;;;20.60;9.45;;;;;;;21.39;42.71;93689.19;6156546;23;20020;-92
2022/07/07 05:28:42;;;;;;;45.03;11.65;;;;;;;21.33;42.87;93701.53;6200706;22;20024;-91
2022/07/07 05:31:10;;;;;;;35.90;10.88;;;;;;;21.26;43.06;93691.88;6184553;23;20028;-93
2022/07/07 05:33:36;;;;;;;21.50;9.20;;;;;;;21.33;43.19;93693.28;6159637;23;20103;-91
2022/07/07 05:36:03;;;;;;;27.95;10.70;;;;;;;21.27;43.44;93709.13;6139589;23;20028;-92
2022/07/07 05:38:30;;;;;;;41.15;12.73;;;;;;;21.23;43.68;93697.69;6174972;23;20568;-93
2022/07/07 05:40:59;;;;;;;37.22;20.25;;;;;;;21.36;43.17;93704.00;6140355;23;20039;-92
2022/07/07 05:43:25;;;;;;;38.33;16.42;;;;;;;21.19;43.52;93708.97;6110265;23;20021;-91
2022/07/07 05:45:53;;;;;;;36.42;18.15;;;;;;;21.18;43.77;93710.97;6102634;23;20021;-91
2022/07/07 05:48:18;;;;;;;41.35;22.52;;;;;;;21.14;43.89;93707.03;6106268;23;20059;-90
2022/07/07 05:50:45;;;;;;;74.88;37.38;;;;;;;21.22;44.09;93709.97;6109936;23;20025;-91
2022/07/07 05:53:11;;;;;;;98.68;44.33;;;;;;;21.16;44.00;93715.50;6109050;23;20037;-92
2022/07/07 05:55:36;;;;;;;147.90;70.65;;;;;;;21.29;43.40;93721.09;6132524;23;20027;-89
2022/07/07 05:58:03;;;;;;;133.23;64.72;;;;;;;21.22;43.76;93710.69;6104782;23;20108;-92
2022/07/07 06:00:30;;;;;;;76.18;33.60;;;;;;;21.15;43.52;93714.78;6103196;23;20080;-93
2022/07/07 06:02:55;;;;;;;92.00;43.50;;;;;;;21.12;43.67;93715.06;6105584;23;20021;-90
2022/07/07 06:05:24;;;;;;;110.07;52.17;;;;;;;21.17;43.41;93709.50;6103096;23;20021;-92
2022/07/07 06:07:59;;;;;;;92.40;46.83;;;;;;;21.15;43.20;93708.53;6106948;23;20508;-91
2022/07/07 06:10:25;;;;;;;65.55;35.03;;;;;;;21.19;43.37;93709.72;6168603;23;20024;-91
2022/07/07 06:12:53;;;;;;;48.45;23.73;;;;;;;21.20;43.03;93705.75;6110555;23;20021;-93
2022/07/07 06:15:20;;;;;;;27.75;15.15;;;;;;;21.06;42.07;93709.63;6107041;23;20021;-90
2022/07/07 06:17:47;;;;;;;28.33;12.85;;;;;;;21.11;42.10;93717.06;6130743;23;20488;-91
2022/07/07 06:20:13;;;;;;;13.50;8.70;;;;;;;21.02;41.87;93705.69;6161747;22;20029;-92
2022/07/07 06:22:38;;;;;;;15.80;8.02;;;;;;;20.99;41.76;93713.00;6195398;23;20122;-93
2022/07/07 06:25:08;;;;;;;14.05;7.30;;;;;;;21.06;41.67;93714.41;6197492;22;20016;-91
2022/07/07 06:27:36;;;;;;;12.60;6.22;;;;;;;20.88;41.69;93708.38;6170674;23;20589;-90
2022/07/07 06:30:03;;;;;;;110.03;39.65;;;;;;;20.98;41.54;93716.28;6163013;23;20080;-90
2022/07/07 06:32:30;;;;;;;48.67;19.60;;;;;;;20.73;41.86;93713.59;6126241;23;20073;-92
2022/07/07 06:34:58;;;;;;;50.28;20.40;;;;;;;20.77;41.99;93714.03;6104809;23;20008;-91
2022/07/07 06:37:24;;;;;;;63.90;18.85;;;;;;;20.74;42.15;93717.06;6085887;23;20029;-93
2022/07/07 06:39:52;;;;;;;38.58;19.23;;;;;;;20.68;42.50;93719.16;6096392;23;20481;-94
2022/07/07 06:42:17;;;;;;;47.47;22.17;;;;;;;20.69;42.26;93715.13;6088592;23;20025;-90
2022/07/07 06:44:52;;;;;;;37.78;19.35;;;;;;;20.58;42.49;93715.25;6118949;23;20089;-90
2022/07/07 06:47:23;;;;;;;37.72;15.23;;;;;;;20.62;42.42;93713.72;6152380;23;20433;-92
2022/07/07 06:49:49;;;;;;;66.40;28.23;;;;;;;20.60;42.63;93718.22;6111860;23;20029;-92
2022/07/07 06:52:17;;;;;;;57.55;27.48;;;;;;;20.53;42.65;93723.06;6078561;23;20084;-89
2022/07/07 06:54:45;;;;;;;72.97;30.85;;;;;;;20.60;42.23;93707.25;6086902;23;20026;-92
2022/07/07 06:57:10;;;;;;;54.95;26.70;;;;;;;20.53;42.74;93716.84;6069715;23;20476;-90
2022/07/07 06:59:36;;;;;;;58.25;23.05;;;;;;;20.56;42.47;93706.81;6090842;23;20018;-86
2022/07/07 07:02:02;;;;;;;45.08;18.23;;;;;;;20.63;42.61;93720.69;6094385;23;20049;-89
2022/07/07 07:04:29;;;;;;;29.92;14.07;;;;;;;20.45;42.71;93715.91;6087326;23;20110;-92
2022/07/07 07:07:19;;;;;;;23.25;11.27;;;;;;;20.51;42.79;93722.09;6133410;23;20017;-91
2022/07/07 07:09:45;;;;;;;22.37;9.67;;;;;;;20.54;42.58;93710.09;6130979;23;20180;-90
2022/07/07 07:12:10;;;;;;;12.35;6.55;;;;;;;20.49;42.49;93713.63;6142712;23;20259;-89
2022/07/07 07:14:37;;;;;;;19.90;5.22;;;;;;;20.39;42.77;93715.22;6133487;23;20032;-90
2022/07/07 07:17:02;;;;;;;10.77;6.03;;;;;;;20.26;42.72;93718.59;6127372;23;20031;-93
2022/07/07 07:19:28;;;;;;;18.52;6.60;;;;;;;20.24;42.92;93717.63;6130125;23;20112;-89
2022/07/07 07:21:53;;;;;;;22.60;7.82;;;;;;;20.42;42.90;93711.44;6131729;23;20021;-88
2022/07/07 07:24:20;;;;;;;35.58;10.55;;;;;;;20.34;43.05;93725.00;6130643;23;20032;-91
2022/07/07 07:26:46;;;;;;;50.00;19.67;;;;;;;20.32;43.27;93718.53;6236520;23;20027;-87
2022/07/07 07:29:12;;;;;;;44.25;16.80;;;;;;;20.41;43.23;93721.69;6191598;22;20347;-88
2022/07/07 07:31:37;;;;;;;32.25;13.13;;;;;;;20.29;43.27;93725.06;6192405;23;20043;-86
2022/07/07 07:34:03;;;;;;;31.92;11.23;;;;;;;20.33;43.39;93723.53;6217653;23;20012;-86
2022/07/07 07:36:29;;;;;;;20.75;9.07;;;;;;;20.47;42.91;93724.38;6218450;23;20042;-89
2022/07/07 07:38:56;;;;;;;16.42;7.25;;;;;;;20.40;43.16;93724.97;6222228;23;20008;-91
2022/07/07 07:41:21;;;;;;;20.17;9.20;;;;;;;20.22;43.26;93718.13;6194636;22;20031;-89
2022/07/07 07:43:48;;;;;;;23.17;8.77;;;;;;;20.40;42.95;93719.47;6222681;23;20034;-91
2022/07/07 07:46:15;;;;;;;25.55;12.82;;;;;;;20.43;43.26;93719.19;6194992;22;20020;-90
2022/07/07 07:48:40;;;;;;;29.10;15.82;;;;;;;20.36;43.66;93714.22;6156506;23;20471;-91
2022/07/07 07:51:07;;;;;;;49.60;26.70;;;;;;;20.39;43.77;93721.47;6157618;23;20476;-89
2022/07/07 07:53:35;;;;;;;59.30;32.28;;;;;;;20.29;44.10;93725.06;6185565;23;20044;-88
2022/07/07 07:56:04;;;;;;;36.35;21.30;;;;;;;20.36;44.08;93729.97;6131350;23;20016;-89
2022/07/07 07:58:47;;;;;;;41.80;23.55;;;;;;;20.45;43.93;93729.66;6165461;23;20048;-90
2022/07/07 08:01:12;;;;;;;36.28;18.67;;;;;;;20.41;44.52;93729.94;6171429;23;20021;-87
2022/07/07 08:03:38;;;;;;;33.75;13.95;;;;;;;20.29;44.28;93727.81;6158562;23;20020;-87
2022/07/07 08:06:04;;;;;;;21.08;10.18;;;;;;;20.26;44.56;93728.84;6180038;23;20104;-93
2022/07/07 08:08:31;;;;;;;24.83;8.27;;;;;;;20.27;44.61;93730.31;6165378;23;20021;-92
2022/07/07 08:10:56;;;;;;;11.68;7.25;;;;;;;20.34;44.69;93740.75;6164193;23;20389;-93
2022/07/07 08:13:22;;;;;;;11.60;5.82;;;;;;;20.24;45.10;93734.84;6150539;23;20091;-92
2022/07/07 08:15:48;;;;;;;15.52;5.03;;;;;;;20.09;45.36;93740.72;6185679;23;20092;-91
2022/07/07 08:18:14;;;;;;;10.85;5.70;;;;;;;20.13;45.54;93735.72;6160855;23;20012;-91
2022/07/07 08:21:20;;;;;;;20.45;10.30;;;;;;;20.18;45.93;93737.63;6194779;23;20036;-91
2022/07/07 08:23:46;;;;;;;79.78;27.95;;;;;;;20.18;45.74;93740.38;6199952;23;20012;-91
2022/07/07 08:26:12;;;;;;;33.80;14.85;;;;;;;20.22;45.67;93731.13;6167297;23;20029;-90
2022/07/07 08:28:38;;;;;;;49.53;21.00;;;;;;;20.32;45.54;93729.53;6160668;23;20625;-90
2022/07/07 08:31:06;;;;;;;46.63;22.90;;;;;;;20.34;45.84;93727.75;6164411;23;20017;-92
2022/07/07 08:33:32;;;;;;;56.25;25.77;;;;;;;20.48;45.34;93736.84;6170360;23;20012;-91
2022/07/07 08:36:00;;;;;;;71.25;30.65;;;;;;;20.51;45.64;93744.81;6159629;23;20514;-92
2022/07/07 08:38:26;;;;;;;65.00;34.28;;;;;;;20.53;45.50;93741.56;6158763;23;20008;-89
2022/07/07 08:40:51;;;;;;;84.97;36.75;;;;;;;20.59;45.42;93739.47;6168567;23;20030;-93
2022/07/07 08:43:24;;;;;;;89.13;40.60;;;;;;;20.63;45.43;93747.41;6160263;23;20415;-91
2022/07/07 08:45:49;;;;;;;94.47;47.75;;;;;;;20.64;45.37;93741.41;6124661;23;20025;-92
2022/07/07 08:48:15;;;;;;;159.90;83.30;;;;;;;20.81;45.34;93754.94;6162790;23;20503;-90
2022/07/07 08:50:40;;;;;;;116.45;56.53;;;;;;;20.76;45.25;93755.78;6168069;23;20137;-90
2022/07/07 08:53:07;;;;;;;131.68;64.30;;;;;;;20.82;45.53;93748.19;6191873;23;20017;-89
2022/07/07 08:55:35;;;;;;;129.93;61.15;;;;;;;20.83;45.70;93755.91;6169608;23;20055;-91
2022/07/07 08:58:00;;;;;;;143.20;67.40;;;;;;;20.85;45.50;93741.66;6149468;23;20021;-91
2022/07/07 09:00:26;;;;;;;161.68;82.68;;;;;;;20.89;45.76;93744.84;6145102;23;20069;-91
2022/07/07 09:02:56;;;;;;;156.02;76.35;;;;;;;20.96;45.66;93738.78;6155453;23;20025;-89
2022/07/07 09:05:22;;;;;;;155.30;76.68;;;;;;;21.00;45.47;93750.19;6162350;23;20021;-92
2022/07/07 09:07:50;;;;;;;155.00;83.47;;;;;;;21.04;45.60;93747.16;6167176;23;20028;-92
2022/07/07 09:10:31;;;;;;;159.30;81.72;;;;;;;21.08;45.58;93753.84;6161092;23;20017;-93
2022/07/07 09:12:57;;;;;;;152.65;80.18;;;;;;;21.10;45.94;93748.56;6188245;23;20025;-95
2022/07/07 09:15:22;;;;;;;158.27;79.28;;;;;;;21.06;45.78;93752.88;6158698;23;20032;-94
2022/07/07 09:17:48;;;;;;;156.77;76.22;;;;;;;21.17;45.69;93755.50;6164892;23;20036;-89
2022/07/07 09:20:14;;;;;;;238.80;92.03;;;;;;;21.11;46.07;93752.81;6182660;23;20033;-94
2022/07/07 09:22:55;;;;;;;180.55;83.15;;;;;;;21.12;46.10;93750.81;6186704;23;20024;-90
2022/07/07 09:25:23;;;;;;;213.55;104.90;;;;;;;21.11;46.21;93752.81;6165455;23;20040;-93
2022/07/07 09:27:50;;;;;;;237.85;126.72;;;;;;;21.14;46.15;93748.28;6158719;23;20012;-91
2022/07/07 09:30:31;;;;;;;177.77;91.03;;;;;;;21.16;45.91;93756.75;6158601;23;20477;-91
2022/07/07 09:32:57;;;;;;;134.18;60.75;;;;;;;21.02;48.91;93755.91;6183828;23;20025;-93
2022/07/07 09:38:22;;;;;;;52.30;26.05;;;;;;;20.84;50.74;93759.41;6181408;23;20028;-92
2022/07/07 09:41:03;;;;;;;46.15;23.02;;;;;;;20.92;50.54;93767.81;6170011;23;20071;-93
2022/07/07 09:43:44;;;;;;;127.45;57.80;;;;;;;20.90;50.18;93765.59;6182790;23;20071;-90
2022/07/07 09:46:29;;;;;;;32.07;16.47;;;;;;;20.84;50.37;93762.91;6158211;23;20542;-93
2022/07/07 09:48:58;;;;;;;35.17;18.27;;;;;;;20.86;50.39;93765.13;6166438;23;20025;-94
2022/07/07 09:51:27;;;;;;;42.10;16.60;;;;;;;20.89;50.28;93766.84;6161872;23;20072;-92
2022/07/07 09:53:58;;;;;;;32.42;13.77;;;;;;;20.71;50.69;93764.81;6185286;23;20482;-90
2022/07/07 09:56:44;;;;;;;17.27;10.30;;;;;;;20.65;50.87;93770.38;6178166;23;20025;-93
2022/07/07 09:59:13;;;;;;;31.88;15.07;;;;;;;20.67;50.86;93764.34;6177480;23;20025;-94
2022/07/07 10:01:40;;;;;;;26.20;13.25;;;;;;;20.54;51.41;93767.75;6180229;23;20009;-94
2022/07/07 10:04:08;;;;;;;21.65;9.75;;;;;;;20.49;51.34;93761.06;6175284;23;20021;-92
2022/07/07 10:06:36;;;;;;;24.42;11.65;;;;;;;20.47;50.36;93757.34;6153335;23;20025;-89
2022/07/07 10:09:16;;;;;;;16.67;7.90;;;;;;;20.48;50.51;93759.56;6152583;23;20013;-90
2022/07/07 10:11:46;;;;;;;18.10;7.35;;;;;;;20.55;50.20;93761.00;6131290;23;20045;-92
2022/07/07 10:14:31;;;;;;;9.63;6.53;;;;;;;20.57;49.54;93763.25;6154298;23;20100;-91
2022/07/07 10:16:59;;;;;;;11.15;6.60;;;;;;;20.55;49.40;93758.25;6126343;23;20009;-93
2022/07/07 10:19:26;;;;;;;10.02;5.40;;;;;;;20.46;49.44;93764.09;6146022;23;20036;-90
2022/07/07 10:21:53;;;;;;;10.35;5.40;;;;;;;20.31;49.62;93758.97;6150963;23;20024;-91
2022/07/07 10:24:21;;;;;;;6.25;5.10;;;;;;;20.37;49.25;93770.66;6139990;23;20060;-90
2022/07/07 10:26:49;;;;;;;8.07;5.63;;;;;;;20.34;49.67;93763.44;6132838;23;20056;-89
2022/07/07 10:29:15;;;;;;;8.35;4.63;;;;;;;20.40;49.42;93768.88;6152914;23;20045;-93
2022/07/07 10:31:41;;;;;;;6.88;3.90;;;;;;;20.30;49.89;93773.97;6153455;23;20021;-90
2022/07/07 10:34:09;;;;;;;7.57;4.50;;;;;;;20.37;49.29;93778.91;6152568;23;20064;-90
2022/07/07 10:37:08;;;;;;;5.57;4.28;;;;;;;20.37;49.56;93773.41;6156845;23;20056;-91
2022/07/07 10:39:41;;;;;;;4.70;3.85;;;;;;;20.31;49.43;93772.72;6073580;23;20049;-91
2022/07/07 10:42:13;;;;;;;5.43;4.47;;;;;;;20.32;48.94;93767.97;6074578;23;20097;-90
2022/07/07 10:44:38;;;;;;;5.20;3.63;;;;;;;20.35;49.07;93773.16;6094787;23;20053;-90
2022/07/07 10:47:11;;;;;;;5.72;4.07;;;;;;;20.32;49.09;93771.47;6094308;23;20093;-90
2022/07/07 10:49:44;;;;;;;7.60;4.13;;;;;;;20.34;49.16;93768.94;6092368;23;20062;-90
2022/07/07 10:52:17;;;;;;;22.58;7.57;;;;;;;20.28;49.13;93762.75;6076366;23;20146;-91
2022/07/07 10:54:44;;;;;;;41.67;10.23;;;;;;;20.26;48.96;93767.28;6081819;23;20532;-89
2022/07/07 10:57:14;;;;;;;38.85;13.43;;;;;;;20.30;48.95;93770.47;6122220;23;20563;-93
2022/07/07 11:00:06;;;;;;;58.95;16.35;;;;;;;20.40;49.02;93771.63;6102628;23;20096;-90
2022/07/07 11:02:35;;;;;;;52.47;18.75;;;;;;;20.38;48.67;93768.66;6123984;23;20033;-90
2022/07/07 11:05:05;;;;;;;59.00;18.08;;;;;;;20.49;48.51;93766.56;6149366;23;20073;-89
2022/07/07 11:07:35;;;;;;;58.88;24.00;;;;;;;20.52;48.37;93768.28;6107038;23;20450;-88
2022/07/07 11:10:19;;;;;;;87.95;31.05;;;;;;;20.59;48.04;93771.69;6121944;23;20069;-88
2022/07/07 11:12:48;;;;;;;78.72;29.30;;;;;;;20.62;47.92;93771.41;6106203;23;20354;-87
2022/07/07 11:15:27;;;;;;;89.88;28.90;;;;;;;20.69;47.87;93768.06;6120858;23;20030;-91
2022/07/07 11:18:00;;;;;;;81.55;28.83;;;;;;;20.73;47.75;93765.03;6157898;23;20021;-88
2022/07/07 11:20:32;;;;;;;89.05;35.15;;;;;;;20.74;47.86;93769.28;6156579;23;20080;-88
2022/07/07 11:23:49;;;;;;;91.03;33.88;;;;;;;20.85;47.54;93771.88;6140780;23;20021;-91
2022/07/07 11:26:19;;;;;;;117.63;36.25;;;;;;;20.88;47.82;93765.34;6133066;23;20022;-89
2022/07/07 11:31:16;;;;;;;88.35;30.77;;;;;;;20.94;47.47;93770.78;6234030;22;20075;-89
2022/07/07 11:33:42;;;;;;;87.95;32.72;;;;;;;20.94;47.49;93768.03;6145361;23;20309;-94
2022/07/07 11:39:05;;;;;;;54.17;26.30;;;;;;;21.02;47.24;93768.91;6214842;23;20028;-89
2022/07/07 11:44:27;;;;;;;33.45;14.50;;;;;;;21.00;46.24;93780.44;6210107;22;20017;-92